sensor_id;sensor_type;location;lat;lon;timestamp;temperature;humidity
21508;DHT22;10915;54.352;9.074;2022-11-23T00:01:17;2.10;99.90
21508;DHT22;10915;54.352;9.074;2022-11-23T00:03:44;2.10;99.90
21508;DHT22;10915;54.352;9.074;2022-11-23T00:06:10;2.10;99.90
21508;DHT22;10915;54.352;9.074;2022-11-23T00:08:36;2.10;99.90
21508;DHT22;10915;54.352;9.074;2022-11-23T00:11:02;2.10;99.90
21508;DHT22;10915;54.352;9.074;2022-11-23T00:13:28;2.10;99.90
21508;DHT22;10915;54.352;9.074;2022-11-23T00:15:54;2.10;99.90
21508;DHT22;10915;54.352;9.074;2022-11-23T00:18:19;2.10;99.90
21508;DHT22;10915;54.352;9.074;2022-11-23T00:20:45;2.10;99.90
21508;DHT22;10915;54.352;9.074;2022-11-23T00:23:11;2.10;99.90
21508;DHT22;10915;54.352;9.074;2022-11-23T00:25:37;2.10;99.90
21508;DHT22;10915;54.352;9.074;2022-11-23T00:28:03;2.10;99.90
21508;DHT22;10915;54.352;9.074;2022-11-23T00:30:29;2.20;99.90
21508;DHT22;10915;54.352;9.074;2022-11-23T00:32:55;2.20;99.90
21508;DHT22;10915;54.352;9.074;2022-11-23T00:35:22;2.20;99.90
21508;DHT22;10915;54.352;9.074;2022-11-23T00:37:48;2.20;99.90
21508;DHT22;10915;54.352;9.074;2022-11-23T00:40:14;2.20;99.90
21508;DHT22;10915;54.352;9.074;2022-11-23T00:42:40;2.20;99.90
21508;DHT22;10915;54.352;9.074;2022-11-23T00:45:06;2.30;99.90
21508;DHT22;10915;54.352;9.074;2022-11-23T00:47:32;2.30;99.90
21508;DHT22;10915;54.352;9.074;2022-11-23T00:49:58;2.30;99.90
21508;DHT22;10915;54.352;9.074;2022-11-23T00:52:24;2.40;99.90
21508;DHT22;10915;54.352;9.074;2022-11-23T00:54:49;2.40;99.90
21508;DHT22;10915;54.352;9.074;2022-11-23T00:57:15;2.40;99.90
21508;DHT22;10915;54.352;9.074;2022-11-23T00:59:41;2.50;99.90
21508;DHT22;10915;54.352;9.074;2022-11-23T01:02:06;2.50;99.90
21508;DHT22;10915;54.352;9.074;2022-11-23T01:04:32;2.50;99.90
21508;DHT22;10915;54.352;9.074;2022-11-23T01:07:01;2.50;99.90
21508;DHT22;10915;54.352;9.074;2022-11-23T01:09:26;2.50;99.90
21508;DHT22;10915;54.352;9.074;2022-11-23T01:11:52;2.60;99.90
21508;DHT22;10915;54.352;9.074;2022-11-23T01:14:19;2.60;99.90
21508;DHT22;10915;54.352;9.074;2022-11-23T01:16:45;2.60;99.90
21508;DHT22;10915;54.352;9.074;2022-11-23T01:19:14;2.60;99.90
21508;DHT22;10915;54.352;9.074;2022-11-23T01:21:41;2.60;99.90
21508;DHT22;10915;54.352;9.074;2022-11-23T01:24:16;2.60;99.90
21508;DHT22;10915;54.352;9.074;2022-11-23T01:26:42;2.60;99.90
21508;DHT22;10915;54.352;9.074;2022-11-23T01:29:11;2.60;99.90
21508;DHT22;10915;54.352;9.074;2022-11-23T01:31:38;2.60;99.90
21508;DHT22;10915;54.352;9.074;2022-11-23T01:34:05;2.60;99.90
21508;DHT22;10915;54.352;9.074;2022-11-23T01:36:32;2.70;99.90
21508;DHT22;10915;54.352;9.074;2022-11-23T01:38:59;2.70;99.90
21508;DHT22;10915;54.352;9.074;2022-11-23T01:41:30;2.70;99.90
21508;DHT22;10915;54.352;9.074;2022-11-23T01:43:57;2.70;99.90
21508;DHT22;10915;54.352;9.074;2022-11-23T01:46:25;2.70;99.90
21508;DHT22;10915;54.352;9.074;2022-11-23T01:48:55;2.80;99.90
21508;DHT22;10915;54.352;9.074;2022-11-23T01:51:32;2.80;99.90
21508;DHT22;10915;54.352;9.074;2022-11-23T01:54:02;2.80;99.90
21508;DHT22;10915;54.352;9.074;2022-11-23T01:56:31;2.90;99.90
21508;DHT22;10915;54.352;9.074;2022-11-23T01:59:00;2.90;99.90
21508;DHT22;10915;54.352;9.074;2022-11-23T02:01:27;2.90;99.90
21508;DHT22;10915;54.352;9.074;2022-11-23T02:03:55;3.00;99.90
21508;DHT22;10915;54.352;9.074;2022-11-23T02:06:23;3.00;99.90
21508;DHT22;10915;54.352;9.074;2022-11-23T02:08:49;3.00;99.90
21508;DHT22;10915;54.352;9.074;2022-11-23T02:11:15;3.00;99.90
21508;DHT22;10915;54.352;9.074;2022-11-23T02:13:43;3.00;99.90
21508;DHT22;10915;54.352;9.074;2022-11-23T02:16:09;3.00;99.90
21508;DHT22;10915;54.352;9.074;2022-11-23T02:18:36;3.00;99.90
21508;DHT22;10915;54.352;9.074;2022-11-23T02:21:04;3.00;99.90
21508;DHT22;10915;54.352;9.074;2022-11-23T02:28:41;3.00;99.90
21508;DHT22;10915;54.352;9.074;2022-11-23T02:31:08;3.10;99.90
21508;DHT22;10915;54.352;9.074;2022-11-23T02:33:38;3.10;99.90
21508;DHT22;10915;54.352;9.074;2022-11-23T02:36:41;3.10;99.90
21508;DHT22;10915;54.352;9.074;2022-11-23T02:41:47;3.10;99.90
21508;DHT22;10915;54.352;9.074;2022-11-23T02:47:20;3.10;99.90
21508;DHT22;10915;54.352;9.074;2022-11-23T02:49:47;3.10;99.90
21508;DHT22;10915;54.352;9.074;2022-11-23T02:52:14;3.10;99.90
21508;DHT22;10915;54.352;9.074;2022-11-23T02:54:43;3.10;99.90
21508;DHT22;10915;54.352;9.074;2022-11-23T02:57:09;3.00;99.90
21508;DHT22;10915;54.352;9.074;2022-11-23T02:59:35;3.00;99.90
21508;DHT22;10915;54.352;9.074;2022-11-23T03:02:02;3.00;99.90
21508;DHT22;10915;54.352;9.074;2022-11-23T03:04:29;3.00;99.90
21508;DHT22;10915;54.352;9.074;2022-11-23T03:06:55;3.00;99.90
21508;DHT22;10915;54.352;9.074;2022-11-23T03:09:22;3.10;99.90
21508;DHT22;10915;54.352;9.074;2022-11-23T03:11:48;3.10;99.90
21508;DHT22;10915;54.352;9.074;2022-11-23T03:14:13;3.10;99.90
21508;DHT22;10915;54.352;9.074;2022-11-23T03:16:39;3.10;99.90
21508;DHT22;10915;54.352;9.074;2022-11-23T03:19:05;3.10;99.90
21508;DHT22;10915;54.352;9.074;2022-11-23T03:21:30;3.10;99.90
21508;DHT22;10915;54.352;9.074;2022-11-23T03:23:56;3.10;99.90
21508;DHT22;10915;54.352;9.074;2022-11-23T03:26:22;3.20;99.90
21508;DHT22;10915;54.352;9.074;2022-11-23T03:28:48;3.20;99.90
21508;DHT22;10915;54.352;9.074;2022-11-23T03:31:14;3.10;99.90
21508;DHT22;10915;54.352;9.074;2022-11-23T03:33:40;3.20;99.90
21508;DHT22;10915;54.352;9.074;2022-11-23T03:36:06;3.20;99.90
21508;DHT22;10915;54.352;9.074;2022-11-23T03:38:31;3.30;99.90
21508;DHT22;10915;54.352;9.074;2022-11-23T03:40:57;3.30;99.90
21508;DHT22;10915;54.352;9.074;2022-11-23T03:43:23;3.30;99.90
21508;DHT22;10915;54.352;9.074;2022-11-23T03:45:49;3.40;99.90
21508;DHT22;10915;54.352;9.074;2022-11-23T03:48:15;3.40;99.90
21508;DHT22;10915;54.352;9.074;2022-11-23T03:50:41;3.50;99.90
21508;DHT22;10915;54.352;9.074;2022-11-23T03:53:08;3.50;99.90
21508;DHT22;10915;54.352;9.074;2022-11-23T03:55:33;3.60;99.90
21508;DHT22;10915;54.352;9.074;2022-11-23T03:57:59;3.60;99.90
21508;DHT22;10915;54.352;9.074;2022-11-23T04:00:29;3.60;99.90
21508;DHT22;10915;54.352;9.074;2022-11-23T04:02:55;3.70;99.90
21508;DHT22;10915;54.352;9.074;2022-11-23T04:05:21;3.70;99.90
21508;DHT22;10915;54.352;9.074;2022-11-23T04:07:48;3.70;99.90
21508;DHT22;10915;54.352;9.074;2022-11-23T04:10:18;3.70;99.90
21508;DHT22;10915;54.352;9.074;2022-11-23T04:12:44;3.80;99.90
21508;DHT22;10915;54.352;9.074;2022-11-23T04:15:11;3.80;99.90
21508;DHT22;10915;54.352;9.074;2022-11-23T04:17:37;3.90;99.90
21508;DHT22;10915;54.352;9.074;2022-11-23T04:20:03;3.90;99.90
21508;DHT22;10915;54.352;9.074;2022-11-23T04:22:29;3.90;99.90
21508;DHT22;10915;54.352;9.074;2022-11-23T04:24:55;3.90;99.90
21508;DHT22;10915;54.352;9.074;2022-11-23T04:27:20;4.00;99.90
21508;DHT22;10915;54.352;9.074;2022-11-23T04:29:46;4.00;99.90
21508;DHT22;10915;54.352;9.074;2022-11-23T04:32:12;4.10;99.90
21508;DHT22;10915;54.352;9.074;2022-11-23T04:34:37;4.10;99.90
21508;DHT22;10915;54.352;9.074;2022-11-23T04:37:03;4.10;99.90
21508;DHT22;10915;54.352;9.074;2022-11-23T04:39:29;4.10;99.90
21508;DHT22;10915;54.352;9.074;2022-11-23T04:41:54;4.10;99.90
21508;DHT22;10915;54.352;9.074;2022-11-23T04:44:20;4.10;99.90
21508;DHT22;10915;54.352;9.074;2022-11-23T05:09:48;4.30;99.90
21508;DHT22;10915;54.352;9.074;2022-11-23T05:12:14;4.30;99.90
21508;DHT22;10915;54.352;9.074;2022-11-23T05:14:39;4.30;99.90
21508;DHT22;10915;54.352;9.074;2022-11-23T05:17:07;4.40;99.90
21508;DHT22;10915;54.352;9.074;2022-11-23T05:19:35;4.30;99.90
21508;DHT22;10915;54.352;9.074;2022-11-23T05:22:01;4.30;99.90
21508;DHT22;10915;54.352;9.074;2022-11-23T05:24:27;4.40;99.90
21508;DHT22;10915;54.352;9.074;2022-11-23T05:26:52;4.40;99.90
21508;DHT22;10915;54.352;9.074;2022-11-23T05:29:18;4.40;99.90
21508;DHT22;10915;54.352;9.074;2022-11-23T05:31:44;4.40;99.90
21508;DHT22;10915;54.352;9.074;2022-11-23T05:34:09;4.40;99.90
21508;DHT22;10915;54.352;9.074;2022-11-23T05:36:35;4.40;99.90
21508;DHT22;10915;54.352;9.074;2022-11-23T05:39:01;4.40;99.90
21508;DHT22;10915;54.352;9.074;2022-11-23T05:41:26;4.40;99.90
21508;DHT22;10915;54.352;9.074;2022-11-23T05:43:52;4.40;99.90
21508;DHT22;10915;54.352;9.074;2022-11-23T05:46:18;4.50;99.90
21508;DHT22;10915;54.352;9.074;2022-11-23T05:48:43;4.50;99.90
21508;DHT22;10915;54.352;9.074;2022-11-23T05:51:09;4.50;99.90
21508;DHT22;10915;54.352;9.074;2022-11-23T05:53:35;4.50;99.90
21508;DHT22;10915;54.352;9.074;2022-11-23T05:56:01;4.50;99.90
21508;DHT22;10915;54.352;9.074;2022-11-23T05:58:27;4.60;99.90
21508;DHT22;10915;54.352;9.074;2022-11-23T06:01:00;4.60;99.90
21508;DHT22;10915;54.352;9.074;2022-11-23T06:03:26;4.60;99.90
21508;DHT22;10915;54.352;9.074;2022-11-23T06:05:52;4.60;99.90
21508;DHT22;10915;54.352;9.074;2022-11-23T06:08:18;4.60;99.90
21508;DHT22;10915;54.352;9.074;2022-11-23T06:10:44;4.60;99.90
21508;DHT22;10915;54.352;9.074;2022-11-23T06:13:10;4.60;99.90
21508;DHT22;10915;54.352;9.074;2022-11-23T06:15:36;4.60;99.90
21508;DHT22;10915;54.352;9.074;2022-11-23T06:18:02;4.70;99.90
21508;DHT22;10915;54.352;9.074;2022-11-23T06:20:28;4.70;99.90
21508;DHT22;10915;54.352;9.074;2022-11-23T06:22:54;4.70;99.90
21508;DHT22;10915;54.352;9.074;2022-11-23T06:25:21;4.70;99.90
21508;DHT22;10915;54.352;9.074;2022-11-23T06:27:57;4.70;99.90
21508;DHT22;10915;54.352;9.074;2022-11-23T06:30:24;4.70;99.90
21508;DHT22;10915;54.352;9.074;2022-11-23T06:32:54;4.70;99.90
21508;DHT22;10915;54.352;9.074;2022-11-23T06:35:23;4.70;99.90
21508;DHT22;10915;54.352;9.074;2022-11-23T06:37:51;4.70;99.90
21508;DHT22;10915;54.352;9.074;2022-11-23T06:40:26;4.80;99.90
21508;DHT22;10915;54.352;9.074;2022-11-23T06:42:59;4.80;99.90
21508;DHT22;10915;54.352;9.074;2022-11-23T06:45:28;4.80;99.90
21508;DHT22;10915;54.352;9.074;2022-11-23T06:47:58;4.80;99.90
21508;DHT22;10915;54.352;9.074;2022-11-23T06:50:29;4.80;99.90
21508;DHT22;10915;54.352;9.074;2022-11-23T06:52:55;4.80;99.90
21508;DHT22;10915;54.352;9.074;2022-11-23T06:55:30;4.80;99.90
21508;DHT22;10915;54.352;9.074;2022-11-23T06:57:56;4.90;99.90
21508;DHT22;10915;54.352;9.074;2022-11-23T07:00:26;4.90;99.90
21508;DHT22;10915;54.352;9.074;2022-11-23T07:02:56;4.90;99.90
21508;DHT22;10915;54.352;9.074;2022-11-23T07:05:27;4.90;99.90
21508;DHT22;10915;54.352;9.074;2022-11-23T07:08:01;4.90;99.90
21508;DHT22;10915;54.352;9.074;2022-11-23T07:10:37;4.90;99.90
21508;DHT22;10915;54.352;9.074;2022-11-23T07:13:09;4.90;99.90
21508;DHT22;10915;54.352;9.074;2022-11-23T07:15:42;5.00;99.90
21508;DHT22;10915;54.352;9.074;2022-11-23T07:18:09;5.00;99.90
21508;DHT22;10915;54.352;9.074;2022-11-23T07:20:36;5.00;99.90
21508;DHT22;10915;54.352;9.074;2022-11-23T07:23:04;5.00;99.90
21508;DHT22;10915;54.352;9.074;2022-11-23T07:25:33;5.00;99.90
21508;DHT22;10915;54.352;9.074;2022-11-23T07:28:09;5.00;99.90
21508;DHT22;10915;54.352;9.074;2022-11-23T07:30:39;5.00;99.90
21508;DHT22;10915;54.352;9.074;2022-11-23T07:33:11;5.10;99.90
21508;DHT22;10915;54.352;9.074;2022-11-23T07:35:38;5.10;99.90
21508;DHT22;10915;54.352;9.074;2022-11-23T07:38:11;5.10;99.90
21508;DHT22;10915;54.352;9.074;2022-11-23T07:40:40;5.20;99.90
21508;DHT22;10915;54.352;9.074;2022-11-23T07:43:07;5.20;99.90
21508;DHT22;10915;54.352;9.074;2022-11-23T07:45:33;5.20;99.90
21508;DHT22;10915;54.352;9.074;2022-11-23T07:48:07;5.30;99.90
21508;DHT22;10915;54.352;9.074;2022-11-23T07:50:36;5.30;99.90
21508;DHT22;10915;54.352;9.074;2022-11-23T07:53:04;5.30;99.90
21508;DHT22;10915;54.352;9.074;2022-11-23T07:55:33;5.30;99.90
21508;DHT22;10915;54.352;9.074;2022-11-23T07:58:08;5.40;99.90
21508;DHT22;10915;54.352;9.074;2022-11-23T08:00:34;5.40;99.90
21508;DHT22;10915;54.352;9.074;2022-11-23T08:03:00;5.40;99.90
21508;DHT22;10915;54.352;9.074;2022-11-23T08:05:30;5.40;99.90
21508;DHT22;10915;54.352;9.074;2022-11-23T08:08:02;5.50;99.90
21508;DHT22;10915;54.352;9.074;2022-11-23T08:10:30;5.50;99.90
21508;DHT22;10915;54.352;9.074;2022-11-23T08:12:57;5.50;99.90
21508;DHT22;10915;54.352;9.074;2022-11-23T08:15:33;5.50;99.90
21508;DHT22;10915;54.352;9.074;2022-11-23T08:18:01;5.50;99.90
21508;DHT22;10915;54.352;9.074;2022-11-23T08:20:33;5.60;99.90
21508;DHT22;10915;54.352;9.074;2022-11-23T08:23:04;5.60;99.90
21508;DHT22;10915;54.352;9.074;2022-11-23T08:25:34;5.60;99.90
21508;DHT22;10915;54.352;9.074;2022-11-23T08:28:02;5.60;99.90
21508;DHT22;10915;54.352;9.074;2022-11-23T08:30:38;5.70;99.90
21508;DHT22;10915;54.352;9.074;2022-11-23T08:33:05;5.70;99.90
21508;DHT22;10915;54.352;9.074;2022-11-23T08:38:49;5.90;99.90
21508;DHT22;10915;54.352;9.074;2022-11-23T08:41:38;5.90;99.90
21508;DHT22;10915;54.352;9.074;2022-11-23T08:47:27;5.90;99.90
21508;DHT22;10915;54.352;9.074;2022-11-23T08:49:53;6.00;99.90
21508;DHT22;10915;54.352;9.074;2022-11-23T09:10:31;6.20;99.90
21508;DHT22;10915;54.352;9.074;2022-11-23T09:13:40;6.20;99.90
21508;DHT22;10915;54.352;9.074;2022-11-23T09:19:51;6.30;99.90
21508;DHT22;10915;54.352;9.074;2022-11-23T09:30:02;6.40;99.90
21508;DHT22;10915;54.352;9.074;2022-11-23T09:36:13;6.50;99.90
21508;DHT22;10915;54.352;9.074;2022-11-23T09:39:14;6.50;99.90
21508;DHT22;10915;54.352;9.074;2022-11-23T09:44:57;6.60;99.90
21508;DHT22;10915;54.352;9.074;2022-11-23T10:04:43;6.80;99.90
21508;DHT22;10915;54.352;9.074;2022-11-23T10:14:03;6.80;99.90
21508;DHT22;10915;54.352;9.074;2022-11-23T10:25:59;7.10;99.90
21508;DHT22;10915;54.352;9.074;2022-11-23T10:28:28;7.10;99.90
21508;DHT22;10915;54.352;9.074;2022-11-23T10:34:11;7.10;99.90
21508;DHT22;10915;54.352;9.074;2022-11-23T10:36:38;7.20;99.90
21508;DHT22;10915;54.352;9.074;2022-11-23T10:39:26;7.20;99.90
21508;DHT22;10915;54.352;9.074;2022-11-23T10:44:59;7.20;99.90
21508;DHT22;10915;54.352;9.074;2022-11-23T10:47:41;7.20;99.90
21508;DHT22;10915;54.352;9.074;2022-11-23T10:50:37;7.30;99.90
21508;DHT22;10915;54.352;9.074;2022-11-23T10:53:22;7.30;99.90
21508;DHT22;10915;54.352;9.074;2022-11-23T10:55:58;7.30;99.90
21508;DHT22;10915;54.352;9.074;2022-11-23T10:58:50;7.40;99.90
21508;DHT22;10915;54.352;9.074;2022-11-23T11:01:22;7.40;99.90
21508;DHT22;10915;54.352;9.074;2022-11-23T11:03:52;7.50;99.90
21508;DHT22;10915;54.352;9.074;2022-11-23T11:06:27;7.50;99.90
21508;DHT22;10915;54.352;9.074;2022-11-23T11:08:59;7.60;99.90
21508;DHT22;10915;54.352;9.074;2022-11-23T11:11:32;7.60;99.90
21508;DHT22;10915;54.352;9.074;2022-11-23T11:14:23;7.70;99.90
21508;DHT22;10915;54.352;9.074;2022-11-23T11:16:54;7.70;99.90
21508;DHT22;10915;54.352;9.074;2022-11-23T11:19:29;7.80;99.90
21508;DHT22;10915;54.352;9.074;2022-11-23T11:21:57;7.90;99.90
21508;DHT22;10915;54.352;9.074;2022-11-23T11:24:43;7.90;99.90
21508;DHT22;10915;54.352;9.074;2022-11-23T11:27:16;8.00;99.90
21508;DHT22;10915;54.352;9.074;2022-11-23T11:29:52;8.10;99.90
21508;DHT22;10915;54.352;9.074;2022-11-23T11:32:48;8.10;99.90
21508;DHT22;10915;54.352;9.074;2022-11-23T11:35:48;8.10;99.90
21508;DHT22;10915;54.352;9.074;2022-11-23T11:38:26;8.20;99.90
21508;DHT22;10915;54.352;9.074;2022-11-23T11:40:56;8.20;99.90
21508;DHT22;10915;54.352;9.074;2022-11-23T11:43:43;8.10;99.90
21508;DHT22;10915;54.352;9.074;2022-11-23T11:46:18;8.30;99.90
21508;DHT22;10915;54.352;9.074;2022-11-23T11:49:06;8.30;99.90
21508;DHT22;10915;54.352;9.074;2022-11-23T11:51:43;8.40;99.90
21508;DHT22;10915;54.352;9.074;2022-11-23T11:54:34;8.40;99.90
21508;DHT22;10915;54.352;9.074;2022-11-23T11:57:25;8.50;99.90
21508;DHT22;10915;54.352;9.074;2022-11-23T11:59:56;8.50;99.90
21508;DHT22;10915;54.352;9.074;2022-11-23T12:02:28;8.60;99.90
21508;DHT22;10915;54.352;9.074;2022-11-23T12:05:09;8.60;99.90
21508;DHT22;10915;54.352;9.074;2022-11-23T12:07:41;8.60;99.90
21508;DHT22;10915;54.352;9.074;2022-11-23T12:10:18;8.60;99.90
21508;DHT22;10915;54.352;9.074;2022-11-23T12:12:45;8.60;99.90
21508;DHT22;10915;54.352;9.074;2022-11-23T12:15:18;8.60;99.90
21508;DHT22;10915;54.352;9.074;2022-11-23T12:32:44;8.70;99.90
21508;DHT22;10915;54.352;9.074;2022-11-23T12:38:15;8.70;99.90
21508;DHT22;10915;54.352;9.074;2022-11-23T12:40:51;8.80;99.90
21508;DHT22;10915;54.352;9.074;2022-11-23T12:43:25;8.80;99.90
21508;DHT22;10915;54.352;9.074;2022-11-23T12:46:07;8.70;99.90
21508;DHT22;10915;54.352;9.074;2022-11-23T12:49:00;8.70;99.90
21508;DHT22;10915;54.352;9.074;2022-11-23T12:51:34;8.70;99.90
21508;DHT22;10915;54.352;9.074;2022-11-23T12:54:30;8.60;99.90
21508;DHT22;10915;54.352;9.074;2022-11-23T12:57:53;8.70;99.90
21508;DHT22;10915;54.352;9.074;2022-11-23T13:00:01;8.60;99.90
21508;DHT22;10915;54.352;9.074;2022-11-23T13:23:37;8.60;99.90
21508;DHT22;10915;54.352;9.074;2022-11-23T13:28:49;8.70;99.90
21508;DHT22;10915;54.352;9.074;2022-11-23T13:33:43;8.70;99.90
21508;DHT22;10915;54.352;9.074;2022-11-23T13:38:58;8.80;99.90
21508;DHT22;10915;54.352;9.074;2022-11-23T13:44:29;8.90;99.90
21508;DHT22;10915;54.352;9.074;2022-11-23T13:47:01;8.90;99.90
21508;DHT22;10915;54.352;9.074;2022-11-23T13:52:22;8.90;99.90
21508;DHT22;10915;54.352;9.074;2022-11-23T13:57:23;8.90;99.90
21508;DHT22;10915;54.352;9.074;2022-11-23T13:59:48;8.90;99.90
21508;DHT22;10915;54.352;9.074;2022-11-23T14:02:28;8.90;99.90
21508;DHT22;10915;54.352;9.074;2022-11-23T14:05:29;8.90;99.90
21508;DHT22;10915;54.352;9.074;2022-11-23T14:07:56;8.90;99.90
21508;DHT22;10915;54.352;9.074;2022-11-23T14:10:24;8.80;99.90
21508;DHT22;10915;54.352;9.074;2022-11-23T14:13:00;8.80;99.90
21508;DHT22;10915;54.352;9.074;2022-11-23T14:15:33;8.80;99.90
21508;DHT22;10915;54.352;9.074;2022-11-23T14:18:17;8.70;99.90
21508;DHT22;10915;54.352;9.074;2022-11-23T14:21:20;8.70;99.90
21508;DHT22;10915;54.352;9.074;2022-11-23T14:29:26;8.60;99.90
21508;DHT22;10915;54.352;9.074;2022-11-23T14:43:02;8.60;99.90
21508;DHT22;10915;54.352;9.074;2022-11-23T14:45:30;8.60;99.90
21508;DHT22;10915;54.352;9.074;2022-11-23T14:47:56;8.60;99.90
21508;DHT22;10915;54.352;9.074;2022-11-23T14:50:25;8.60;99.90
21508;DHT22;10915;54.352;9.074;2022-11-23T14:52:53;8.60;99.90
21508;DHT22;10915;54.352;9.074;2022-11-23T14:55:31;8.50;99.90
21508;DHT22;10915;54.352;9.074;2022-11-23T14:58:00;8.40;99.90
21508;DHT22;10915;54.352;9.074;2022-11-23T15:00:35;8.30;99.90
21508;DHT22;10915;54.352;9.074;2022-11-23T15:03:11;8.20;99.90
21508;DHT22;10915;54.352;9.074;2022-11-23T15:05:43;8.10;99.90
21508;DHT22;10915;54.352;9.074;2022-11-23T15:08:29;8.00;99.90
21508;DHT22;10915;54.352;9.074;2022-11-23T15:11:17;7.90;99.90
21508;DHT22;10915;54.352;9.074;2022-11-23T15:13:49;7.70;99.90
21508;DHT22;10915;54.352;9.074;2022-11-23T15:16:17;7.60;99.90
21508;DHT22;10915;54.352;9.074;2022-11-23T15:18:43;7.50;99.90
21508;DHT22;10915;54.352;9.074;2022-11-23T15:23:39;7.30;99.90
21508;DHT22;10915;54.352;9.074;2022-11-23T15:28:40;7.20;99.90
21508;DHT22;10915;54.352;9.074;2022-11-23T15:33:49;7.10;99.90
21508;DHT22;10915;54.352;9.074;2022-11-23T15:36:20;7.10;99.90
21508;DHT22;10915;54.352;9.074;2022-11-23T15:38:49;7.10;99.90
21508;DHT22;10915;54.352;9.074;2022-11-23T15:41:16;7.10;99.90
21508;DHT22;10915;54.352;9.074;2022-11-23T15:43:57;7.10;99.90
21508;DHT22;10915;54.352;9.074;2022-11-23T15:46:28;7.20;99.90
21508;DHT22;10915;54.352;9.074;2022-11-23T15:48:59;7.20;99.90
21508;DHT22;10915;54.352;9.074;2022-11-23T15:51:37;7.20;99.90
21508;DHT22;10915;54.352;9.074;2022-11-23T15:54:03;7.30;99.90
21508;DHT22;10915;54.352;9.074;2022-11-23T15:56:35;7.30;99.90
21508;DHT22;10915;54.352;9.074;2022-11-23T15:59:24;7.30;99.90
21508;DHT22;10915;54.352;9.074;2022-11-23T16:01:52;7.40;99.90
21508;DHT22;10915;54.352;9.074;2022-11-23T16:04:27;7.40;99.90
21508;DHT22;10915;54.352;9.074;2022-11-23T16:06:54;7.40;99.90
21508;DHT22;10915;54.352;9.074;2022-11-23T16:09:39;7.40;99.90
21508;DHT22;10915;54.352;9.074;2022-11-23T16:14:45;7.40;99.90
21508;DHT22;10915;54.352;9.074;2022-11-23T16:17:18;7.40;99.90
21508;DHT22;10915;54.352;9.074;2022-11-23T16:19:49;7.40;99.90
21508;DHT22;10915;54.352;9.074;2022-11-23T16:22:27;7.40;99.90
21508;DHT22;10915;54.352;9.074;2022-11-23T16:25:29;7.40;99.90
21508;DHT22;10915;54.352;9.074;2022-11-23T16:28:16;7.40;99.90
21508;DHT22;10915;54.352;9.074;2022-11-23T16:30:43;7.40;99.90
21508;DHT22;10915;54.352;9.074;2022-11-23T16:33:15;7.40;99.90
21508;DHT22;10915;54.352;9.074;2022-11-23T16:35:41;7.40;99.90
21508;DHT22;10915;54.352;9.074;2022-11-23T16:38:07;7.40;99.90
21508;DHT22;10915;54.352;9.074;2022-11-23T16:40:33;7.40;99.90
21508;DHT22;10915;54.352;9.074;2022-11-23T16:42:59;7.30;99.90
21508;DHT22;10915;54.352;9.074;2022-11-23T16:45:25;7.20;99.90
21508;DHT22;10915;54.352;9.074;2022-11-23T16:47:53;7.20;99.90
21508;DHT22;10915;54.352;9.074;2022-11-23T16:50:20;7.10;99.90
21508;DHT22;10915;54.352;9.074;2022-11-23T16:52:47;7.00;99.90
21508;DHT22;10915;54.352;9.074;2022-11-23T16:55:13;6.90;99.90
21508;DHT22;10915;54.352;9.074;2022-11-23T16:57:39;6.90;99.90
21508;DHT22;10915;54.352;9.074;2022-11-23T17:00:10;6.90;99.90
21508;DHT22;10915;54.352;9.074;2022-11-23T17:02:38;6.80;99.90
21508;DHT22;10915;54.352;9.074;2022-11-23T17:05:15;6.70;99.90
21508;DHT22;10915;54.352;9.074;2022-11-23T17:07:41;6.70;99.90
21508;DHT22;10915;54.352;9.074;2022-11-23T17:10:08;6.60;99.90
21508;DHT22;10915;54.352;9.074;2022-11-23T17:12:35;6.50;99.90
21508;DHT22;10915;54.352;9.074;2022-11-23T17:15:02;6.40;99.90
21508;DHT22;10915;54.352;9.074;2022-11-23T17:17:28;6.40;99.90
21508;DHT22;10915;54.352;9.074;2022-11-23T17:19:54;6.40;99.90
21508;DHT22;10915;54.352;9.074;2022-11-23T17:22:20;6.30;99.90
21508;DHT22;10915;54.352;9.074;2022-11-23T17:24:48;6.30;99.90
21508;DHT22;10915;54.352;9.074;2022-11-23T17:27:23;6.20;99.90
21508;DHT22;10915;54.352;9.074;2022-11-23T17:29:57;6.20;99.90
21508;DHT22;10915;54.352;9.074;2022-11-23T17:32:24;6.10;99.90
21508;DHT22;10915;54.352;9.074;2022-11-23T17:34:50;6.00;99.90
21508;DHT22;10915;54.352;9.074;2022-11-23T17:37:18;6.00;99.90
21508;DHT22;10915;54.352;9.074;2022-11-23T17:39:46;6.00;99.90
21508;DHT22;10915;54.352;9.074;2022-11-23T17:45:59;6.00;99.90
21508;DHT22;10915;54.352;9.074;2022-11-23T18:12:32;6.40;99.90
21508;DHT22;10915;54.352;9.074;2022-11-23T18:14:58;6.30;99.90
21508;DHT22;10915;54.352;9.074;2022-11-23T18:17:24;6.30;99.90
21508;DHT22;10915;54.352;9.074;2022-11-23T18:19:50;6.20;99.90
21508;DHT22;10915;54.352;9.074;2022-11-23T18:22:31;6.20;99.90
21508;DHT22;10915;54.352;9.074;2022-11-23T18:24:58;6.20;99.90
21508;DHT22;10915;54.352;9.074;2022-11-23T18:27:23;6.10;99.90
21508;DHT22;10915;54.352;9.074;2022-11-23T18:29:52;6.10;99.90
21508;DHT22;10915;54.352;9.074;2022-11-23T18:32:21;6.10;99.90
21508;DHT22;10915;54.352;9.074;2022-11-23T18:34:47;6.10;99.90
21508;DHT22;10915;54.352;9.074;2022-11-23T18:37:14;6.10;99.90
21508;DHT22;10915;54.352;9.074;2022-11-23T18:39:40;6.10;99.90
21508;DHT22;10915;54.352;9.074;2022-11-23T18:42:06;6.10;99.90
21508;DHT22;10915;54.352;9.074;2022-11-23T18:44:38;6.10;99.90
21508;DHT22;10915;54.352;9.074;2022-11-23T18:47:04;6.10;99.90
21508;DHT22;10915;54.352;9.074;2022-11-23T18:49:39;6.10;99.90
21508;DHT22;10915;54.352;9.074;2022-11-23T18:52:15;6.10;99.90
21508;DHT22;10915;54.352;9.074;2022-11-23T18:54:41;6.10;99.90
21508;DHT22;10915;54.352;9.074;2022-11-23T18:57:17;6.10;99.90
21508;DHT22;10915;54.352;9.074;2022-11-23T18:59:43;6.10;99.90
21508;DHT22;10915;54.352;9.074;2022-11-23T19:02:10;6.20;99.90
21508;DHT22;10915;54.352;9.074;2022-11-23T19:04:36;6.20;99.90
21508;DHT22;10915;54.352;9.074;2022-11-23T19:07:22;6.20;99.90
21508;DHT22;10915;54.352;9.074;2022-11-23T19:09:49;6.10;99.90
21508;DHT22;10915;54.352;9.074;2022-11-23T19:12:17;6.10;99.90
21508;DHT22;10915;54.352;9.074;2022-11-23T19:14:43;6.10;99.90
21508;DHT22;10915;54.352;9.074;2022-11-23T19:17:14;6.00;99.90
21508;DHT22;10915;54.352;9.074;2022-11-23T19:19:41;5.90;99.90
21508;DHT22;10915;54.352;9.074;2022-11-23T19:22:09;5.80;99.90
21508;DHT22;10915;54.352;9.074;2022-11-23T19:24:36;5.80;99.90
21508;DHT22;10915;54.352;9.074;2022-11-23T19:27:03;5.70;99.90
21508;DHT22;10915;54.352;9.074;2022-11-23T19:29:30;5.70;99.90
21508;DHT22;10915;54.352;9.074;2022-11-23T19:31:56;5.60;99.90
21508;DHT22;10915;54.352;9.074;2022-11-23T19:34:27;5.60;99.90
21508;DHT22;10915;54.352;9.074;2022-11-23T19:36:56;5.60;99.90
21508;DHT22;10915;54.352;9.074;2022-11-23T19:39:22;5.50;99.90
21508;DHT22;10915;54.352;9.074;2022-11-23T19:41:48;5.50;99.90
21508;DHT22;10915;54.352;9.074;2022-11-23T19:44:16;5.50;99.90
21508;DHT22;10915;54.352;9.074;2022-11-23T19:46:45;5.50;99.90
21508;DHT22;10915;54.352;9.074;2022-11-23T19:49:12;5.50;99.90
21508;DHT22;10915;54.352;9.074;2022-11-23T19:51:43;5.50;99.90